createdAt,value
2018-08-30T00:03:20.702Z,101093.12
2018-08-30T00:08:15.226Z,101105.28
2018-08-30T00:13:09.832Z,101106.95
2018-08-30T00:18:04.318Z,101112.31
2018-08-30T00:22:58.886Z,101113.62
2018-08-30T00:27:53.576Z,101129.79
2018-08-30T00:32:48.147Z,101140.99
2018-08-30T00:37:42.614Z,101147.05
2018-08-30T00:42:37.138Z,101160.55
2018-08-30T00:47:31.591Z,101165.53
2018-08-30T00:52:26.063Z,101166.99
2018-08-30T00:57:20.718Z,101172.70
2018-08-30T01:02:15.653Z,101182.56
2018-08-30T01:07:11.293Z,101183.90
2018-08-30T01:12:06.120Z,101190.20
2018-08-30T01:17:01.010Z,101187.88
2018-08-30T01:21:55.703Z,101197.12
2018-08-30T01:26:50.186Z,101198.69
2018-08-30T01:31:45.471Z,101197.95
2018-08-30T01:36:40.872Z,101206.31
2018-08-30T01:41:35.685Z,101212.38
2018-08-30T01:46:30.980Z,101214.92
2018-08-30T01:51:25.580Z,101215.03
2018-08-30T01:56:20.241Z,101221.33
2018-08-30T02:01:15.245Z,101229.85
2018-08-30T02:06:10.083Z,101231.55
2018-08-30T02:11:04.576Z,101233.47
2018-08-30T02:15:59.206Z,101233.00
2018-08-30T02:20:53.930Z,101237.01
2018-08-30T02:25:48.604Z,101236.14
2018-08-30T02:30:43.800Z,101238.46
2018-08-30T02:35:38.544Z,101242.59
2018-08-30T02:40:32.992Z,101246.70
2018-08-30T02:45:27.637Z,101246.83
2018-08-30T02:50:22.180Z,101251.78
2018-08-30T02:55:16.676Z,101248.39
2018-08-30T03:00:11.745Z,101253.85
2018-08-30T03:05:06.553Z,101260.77
2018-08-30T03:10:01.379Z,101270.23
2018-08-30T03:15:12.279Z,101260.59
2018-08-30T03:20:09.204Z,101272.62
2018-08-30T03:25:04.936Z,101270.81
2018-08-30T03:29:59.838Z,101268.26
2018-08-30T03:34:54.382Z,101280.87
2018-08-30T03:39:49.438Z,101278.78
2018-08-30T03:44:43.974Z,101284.74
2018-08-30T03:49:38.738Z,101285.80
2018-08-30T03:54:33.244Z,101287.53
2018-08-30T03:59:28.004Z,101299.44
2018-08-30T04:04:22.488Z,101306.76
2018-08-30T04:09:17.145Z,101306.25
2018-08-30T04:14:11.610Z,101317.33
2018-08-30T04:19:07.486Z,101316.11
2018-08-30T04:24:02.739Z,101321.28
2018-08-30T04:28:57.334Z,101329.16
2018-08-30T04:33:52.182Z,101334.39
2018-08-30T04:38:46.948Z,101337.42
2018-08-30T04:43:41.537Z,101337.42
2018-08-30T04:48:36.280Z,101337.78
2018-08-30T04:53:30.763Z,101349.09
2018-08-30T04:58:25.292Z,101352.70
2018-08-30T05:03:19.762Z,101358.44
2018-08-30T05:08:14.242Z,101361.00
2018-08-30T05:13:09.033Z,101363.17
2018-08-30T05:18:03.539Z,101369.55
2018-08-30T05:22:58.339Z,101370.92
2018-08-30T05:27:53.454Z,101368.91
2018-08-30T05:32:48.505Z,101366.18
2018-08-30T05:37:42.960Z,101371.33
2018-08-30T05:42:37.631Z,101377.97
2018-08-30T05:47:32.180Z,101381.69
2018-08-30T05:52:27.018Z,101390.49
2018-08-30T05:57:21.605Z,101391.70
2018-08-30T06:02:16.081Z,101396.27
2018-08-30T06:07:10.766Z,101398.72
2018-08-30T06:12:05.237Z,101405.22
2018-08-30T06:17:00.317Z,101403.88
2018-08-30T06:21:54.881Z,101414.08
2018-08-30T06:26:49.827Z,101417.15
2018-08-30T06:31:44.384Z,101426.28
2018-08-30T06:36:39.082Z,101427.98
2018-08-30T06:41:33.624Z,101428.27
2018-08-30T06:46:28.476Z,101435.39
2018-08-30T06:51:23.067Z,101437.38
2018-08-30T06:56:18.289Z,101437.77
2018-08-30T07:01:13.470Z,101443.03
2018-08-30T07:06:08.627Z,101452.33
2018-08-30T07:11:03.082Z,101453.33
2018-08-30T07:15:57.617Z,101459.39
2018-08-30T07:20:52.755Z,101461.41
2018-08-30T07:25:49.019Z,101464.33
2018-08-30T07:30:43.982Z,101463.16
2018-08-30T07:35:38.552Z,101476.16
2018-08-30T07:40:33.037Z,101474.50
2018-08-30T07:45:27.650Z,101487.25
2018-08-30T07:50:22.180Z,101501.58
2018-08-30T07:55:16.859Z,101499.48
2018-08-30T08:00:11.842Z,101504.77
2018-08-30T08:05:06.610Z,101499.78
2018-08-30T08:10:01.380Z,101507.27
2018-08-30T08:14:55.848Z,101517.09
2018-08-30T08:19:50.534Z,101511.97
2018-08-30T08:24:45.302Z,101515.59
2018-08-30T08:29:40.278Z,101516.30
2018-08-30T08:34:34.979Z,101526.70
2018-08-30T08:39:30.057Z,101529.52
2018-08-30T08:44:25.472Z,101521.43
2018-08-30T08:49:20.285Z,101534.18
2018-08-30T08:54:15.075Z,101533.27
2018-08-30T08:59:10.259Z,101537.64
2018-08-30T09:04:05.333Z,101535.97
2018-08-30T09:09:00.122Z,101539.13
2018-08-30T09:13:55.128Z,101545.02
2018-08-30T09:18:49.845Z,101543.34
2018-08-30T09:23:45.114Z,101540.34
2018-08-30T09:28:39.897Z,101538.72
2018-08-30T09:33:34.673Z,101538.78
2018-08-30T09:38:29.574Z,101542.56
2018-08-30T09:43:24.300Z,101541.56
2018-08-30T09:48:19.072Z,101543.23
2018-08-30T09:53:13.833Z,101546.36
2018-08-30T09:58:08.988Z,101542.58
2018-08-30T10:03:03.697Z,101540.06
2018-08-30T10:07:58.471Z,101537.05
2018-08-30T10:12:53.614Z,101539.03
2018-08-30T10:17:48.346Z,101541.81
2018-08-30T10:22:43.082Z,101552.73
2018-08-30T10:27:38.293Z,101544.77
2018-08-30T10:32:33.487Z,101546.66
2018-08-30T10:37:28.573Z,101543.77
2018-08-30T10:42:23.128Z,101547.62
2018-08-30T10:47:17.631Z,101546.60
2018-08-30T10:52:12.473Z,101549.78
2018-08-30T10:57:07.198Z,101542.80
2018-08-30T11:02:01.688Z,101543.52
2018-08-30T11:06:56.446Z,101554.70
2018-08-30T11:11:51.040Z,101554.00
2018-08-30T11:16:45.655Z,101552.39
2018-08-30T11:21:40.226Z,101548.50
2018-08-30T11:26:34.823Z,101556.12
2018-08-30T11:31:29.302Z,101557.06
2018-08-30T11:36:23.752Z,101553.38
2018-08-30T11:41:18.413Z,101559.59
2018-08-30T11:46:13.032Z,101562.09
2018-08-30T11:51:08.735Z,101548.70
2018-08-30T11:56:03.703Z,101553.98
2018-08-30T12:00:58.650Z,101568.33
2018-08-30T12:05:53.817Z,101566.59
2018-08-30T12:10:48.871Z,101569.84
2018-08-30T12:15:43.653Z,101566.02
2018-08-30T12:20:38.315Z,101580.28
2018-08-30T12:25:32.997Z,101576.95
2018-08-30T12:30:27.706Z,101573.88
2018-08-30T12:35:22.634Z,101574.77
2018-08-30T12:40:18.006Z,101571.84
2018-08-30T12:45:12.523Z,101575.82
2018-08-30T12:50:07.560Z,101570.47
2018-08-30T12:55:02.611Z,101571.67
2018-08-30T12:59:57.186Z,101578.19
2018-08-30T13:04:51.953Z,101582.40
2018-08-30T13:09:47.021Z,101577.08
2018-08-30T13:14:41.966Z,101587.38
2018-08-30T13:19:36.754Z,101588.84
2018-08-30T13:24:31.358Z,101581.97
2018-08-30T13:29:26.216Z,101578.19
2018-08-30T13:34:21.081Z,101574.70
2018-08-30T13:39:16.344Z,101573.91
2018-08-30T13:44:12.044Z,101568.63
2018-08-30T13:49:07.237Z,101563.74
2018-08-30T13:54:01.860Z,101579.05
2018-08-30T13:58:56.496Z,101578.30
2018-08-30T14:03:51.071Z,101579.47
2018-08-30T14:08:46.154Z,101588.38
2018-08-30T14:13:41.323Z,101581.54
2018-08-30T14:18:35.718Z,101583.33
2018-08-30T14:23:30.569Z,101580.88
2018-08-30T14:28:25.071Z,101581.23
2018-08-30T14:33:20.018Z,101577.47
2018-08-30T14:38:14.900Z,101583.73
2018-08-30T14:43:09.870Z,101581.09
2018-08-30T14:48:04.414Z,101581.80
2018-08-30T14:52:59.225Z,101579.20
2018-08-30T14:57:53.838Z,101581.94
2018-08-30T15:02:48.635Z,101579.70
2018-08-30T15:07:43.299Z,101570.78
2018-08-30T15:12:38.209Z,101572.03
2018-08-30T15:17:33.574Z,101576.10
2018-08-30T15:22:29.912Z,101568.98
2018-08-30T15:27:24.418Z,101565.37
2018-08-30T15:32:19.113Z,101580.33
2018-08-30T15:37:13.564Z,101583.34
2018-08-30T15:42:08.388Z,101590.66
2018-08-30T15:47:03.352Z,101589.47
2018-08-30T15:51:57.908Z,101588.78
2018-08-30T15:56:52.366Z,101576.68
2018-08-30T16:01:46.936Z,101588.22
2018-08-30T16:06:41.641Z,101590.11
2018-08-30T16:11:36.640Z,101587.38
2018-08-30T16:16:31.336Z,101575.75
2018-08-30T16:21:25.960Z,101571.92
2018-08-30T16:26:20.642Z,101585.72
2018-08-30T16:31:15.263Z,101570.98
2018-08-30T16:36:10.073Z,101581.16
2018-08-30T16:41:06.601Z,101577.80
2018-08-30T16:46:02.505Z,101578.45
2018-08-30T16:50:57.048Z,101575.55
2018-08-30T16:55:51.760Z,101570.77
2018-08-30T17:00:46.409Z,101569.91
2018-08-30T17:05:41.649Z,101571.56
2018-08-30T17:10:36.865Z,101570.73
2018-08-30T17:15:31.618Z,101573.59
2018-08-30T17:20:47.379Z,101566.07
2018-08-30T17:25:42.926Z,101569.96
2018-08-30T17:30:37.651Z,101567.67
2018-08-30T17:35:32.271Z,101566.14
2018-08-30T17:40:26.838Z,101570.27
2018-08-30T17:45:21.681Z,101568.80
2018-08-30T17:50:18.459Z,101563.39
2018-08-30T17:55:13.796Z,101566.77
2018-08-30T18:00:11.895Z,101565.13
2018-08-30T18:05:07.126Z,101569.30
2018-08-30T18:10:02.976Z,101573.92
2018-08-30T18:14:57.426Z,101572.14
2018-08-30T18:29:19.176Z,101590.88
2018-08-30T18:34:16.217Z,101604.62
2018-08-30T18:39:13.631Z,101607.19
2018-08-30T18:44:10.106Z,101606.23
2018-08-30T18:49:07.569Z,101624.36
2018-08-30T18:54:04.261Z,101625.57
2018-08-30T18:59:00.914Z,101628.94
2018-08-30T19:03:58.147Z,101628.12
2018-08-30T19:08:52.674Z,101636.40
2018-08-30T19:13:47.184Z,101638.39
2018-08-30T19:18:46.877Z,101640.13
2018-08-30T19:23:41.330Z,101648.95
2018-08-30T19:28:35.889Z,101646.95
2018-08-30T19:33:30.681Z,101660.34
2018-08-30T19:38:25.276Z,101656.07
2018-08-30T19:43:19.938Z,101653.39
2018-08-30T19:48:14.431Z,101657.42
2018-08-30T19:53:09.599Z,101655.72
2018-08-30T19:58:04.053Z,101652.77
2018-08-30T20:02:58.727Z,101654.02
2018-08-30T20:07:53.176Z,101655.75
2018-08-30T20:12:48.099Z,101652.50
2018-08-30T20:17:42.795Z,101657.36
2018-08-30T20:22:37.284Z,101653.23
2018-08-30T20:27:31.931Z,101656.20
2018-08-30T20:32:26.420Z,101660.94
2018-08-30T20:37:21.630Z,101658.06
2018-08-30T20:42:16.100Z,101659.68
2018-08-30T20:47:10.594Z,101662.07
2018-08-30T20:52:05.227Z,101662.73
2018-08-30T20:56:59.782Z,101665.11
2018-08-30T21:01:54.312Z,101666.23
2018-08-30T21:06:48.918Z,101670.63
2018-08-30T21:11:43.581Z,101675.09
2018-08-30T21:16:38.195Z,101674.23
2018-08-30T21:21:33.215Z,101672.52
2018-08-30T21:26:27.678Z,101666.91
2018-08-30T21:31:23.589Z,101668.13
2018-08-30T21:36:18.519Z,101669.05
2018-08-30T21:41:13.239Z,101668.86
2018-08-30T21:46:08.571Z,101672.45
2018-08-30T21:51:03.748Z,101670.10
2018-08-30T21:55:59.132Z,101688.44
2018-08-30T22:00:54.352Z,101685.50
2018-08-30T22:05:51.634Z,101693.77
2018-08-30T22:10:47.604Z,101689.48
2018-08-30T22:15:42.336Z,101687.00
2018-08-30T22:20:37.117Z,101691.64
2018-08-30T22:25:33.955Z,101685.16
2018-08-30T22:30:31.222Z,101688.94
2018-08-30T22:35:26.408Z,101685.70
2018-08-30T22:40:21.046Z,101693.84
2018-08-30T22:45:15.846Z,101695.94
2018-08-30T22:50:10.963Z,101690.87
2018-08-30T22:55:05.486Z,101690.73
2018-08-30T23:00:00.124Z,101683.07
2018-08-30T23:04:55.026Z,101686.09
2018-08-30T23:09:49.881Z,101685.94
2018-08-30T23:14:45.064Z,101679.55
2018-08-30T23:19:39.825Z,101683.80
2018-08-30T23:24:34.498Z,101675.13
2018-08-30T23:29:29.342Z,101686.34
2018-08-30T23:34:24.248Z,101686.03
2018-08-30T23:39:19.194Z,101681.75
2018-08-30T23:44:14.871Z,101680.50
2018-08-30T23:49:10.237Z,101682.30
2018-08-30T23:54:04.886Z,101687.24
2018-08-30T23:59:16.590Z,101689.91
